sensor_id;sensor_type;location;lat;lon;timestamp;P1;durP1;ratioP1;P2;durP2;ratioP2
37221;SDS011;23119;51.842;-2.230;2023-09-07T00:01:11;5.85;;;4.13;;
37221;SDS011;23119;51.842;-2.230;2023-09-07T00:03:37;5.95;;;3.83;;
37221;SDS011;23119;51.842;-2.230;2023-09-07T00:06:06;6.93;;;3.30;;
37221;SDS011;23119;51.842;-2.230;2023-09-07T00:08:32;5.60;;;3.10;;
37221;SDS011;23119;51.842;-2.230;2023-09-07T00:11:04;7.22;;;2.80;;
37221;SDS011;23119;51.842;-2.230;2023-09-07T00:13:34;4.90;;;3.58;;
37221;SDS011;23119;51.842;-2.230;2023-09-07T00:16:03;4.80;;;3.47;;
37221;SDS011;23119;51.842;-2.230;2023-09-07T00:18:30;5.07;;;3.05;;
37221;SDS011;23119;51.842;-2.230;2023-09-07T00:20:56;5.65;;;3.13;;
37221;SDS011;23119;51.842;-2.230;2023-09-07T00:23:23;7.22;;;4.38;;
37221;SDS011;23119;51.842;-2.230;2023-09-07T00:26:09;9.88;;;5.03;;
37221;SDS011;23119;51.842;-2.230;2023-09-07T00:28:37;8.63;;;5.43;;
37221;SDS011;23119;51.842;-2.230;2023-09-07T00:31:03;5.05;;;3.45;;
37221;SDS011;23119;51.842;-2.230;2023-09-07T00:33:32;9.70;;;4.40;;
37221;SDS011;23119;51.842;-2.230;2023-09-07T00:36:03;8.50;;;4.13;;
37221;SDS011;23119;51.842;-2.230;2023-09-07T00:38:31;6.30;;;3.67;;
37221;SDS011;23119;51.842;-2.230;2023-09-07T00:40:57;7.85;;;4.60;;
37221;SDS011;23119;51.842;-2.230;2023-09-07T00:43:23;6.30;;;3.53;;
37221;SDS011;23119;51.842;-2.230;2023-09-07T00:45:49;9.63;;;4.03;;
37221;SDS011;23119;51.842;-2.230;2023-09-07T00:48:39;6.38;;;4.13;;
37221;SDS011;23119;51.842;-2.230;2023-09-07T00:51:06;5.95;;;3.97;;
37221;SDS011;23119;51.842;-2.230;2023-09-07T00:53:36;8.32;;;3.83;;
37221;SDS011;23119;51.842;-2.230;2023-09-07T00:56:05;6.00;;;4.18;;
37221;SDS011;23119;51.842;-2.230;2023-09-07T00:58:39;8.95;;;5.13;;
37221;SDS011;23119;51.842;-2.230;2023-09-07T01:01:05;7.22;;;4.80;;
37221;SDS011;23119;51.842;-2.230;2023-09-07T01:03:33;7.70;;;3.92;;
37221;SDS011;23119;51.842;-2.230;2023-09-07T01:06:03;8.10;;;5.10;;
37221;SDS011;23119;51.842;-2.230;2023-09-07T01:08:42;6.32;;;4.55;;
37221;SDS011;23119;51.842;-2.230;2023-09-07T01:11:18;8.38;;;3.88;;
37221;SDS011;23119;51.842;-2.230;2023-09-07T01:13:51;6.65;;;4.68;;
37221;SDS011;23119;51.842;-2.230;2023-09-07T01:16:29;9.40;;;4.60;;
37221;SDS011;23119;51.842;-2.230;2023-09-07T01:18:58;7.60;;;4.57;;
37221;SDS011;23119;51.842;-2.230;2023-09-07T01:24:09;9.43;;;4.40;;
37221;SDS011;23119;51.842;-2.230;2023-09-07T01:26:38;7.70;;;4.28;;
37221;SDS011;23119;51.842;-2.230;2023-09-07T01:29:07;9.80;;;5.85;;
37221;SDS011;23119;51.842;-2.230;2023-09-07T01:31:36;12.27;;;6.80;;
37221;SDS011;23119;51.842;-2.230;2023-09-07T01:34:07;10.32;;;6.38;;
37221;SDS011;23119;51.842;-2.230;2023-09-07T01:36:34;9.35;;;5.07;;
37221;SDS011;23119;51.842;-2.230;2023-09-07T01:39:03;8.23;;;5.43;;
37221;SDS011;23119;51.842;-2.230;2023-09-07T01:41:30;10.23;;;6.15;;
37221;SDS011;23119;51.842;-2.230;2023-09-07T01:43:56;9.57;;;5.55;;
37221;SDS011;23119;51.842;-2.230;2023-09-07T01:46:22;6.63;;;4.55;;
37221;SDS011;23119;51.842;-2.230;2023-09-07T01:48:50;8.13;;;5.72;;
37221;SDS011;23119;51.842;-2.230;2023-09-07T01:51:25;8.95;;;6.38;;
37221;SDS011;23119;51.842;-2.230;2023-09-07T01:53:53;11.05;;;5.75;;
37221;SDS011;23119;51.842;-2.230;2023-09-07T01:56:19;10.65;;;5.50;;
37221;SDS011;23119;51.842;-2.230;2023-09-07T01:58:45;7.68;;;5.20;;
37221;SDS011;23119;51.842;-2.230;2023-09-07T02:01:30;9.45;;;5.00;;
37221;SDS011;23119;51.842;-2.230;2023-09-07T02:04:04;9.15;;;5.57;;
37221;SDS011;23119;51.842;-2.230;2023-09-07T02:06:30;8.95;;;4.95;;
37221;SDS011;23119;51.842;-2.230;2023-09-07T02:08:55;8.75;;;4.78;;
37221;SDS011;23119;51.842;-2.230;2023-09-07T02:11:21;6.70;;;4.45;;
37221;SDS011;23119;51.842;-2.230;2023-09-07T02:13:47;10.98;;;5.40;;
37221;SDS011;23119;51.842;-2.230;2023-09-07T02:16:16;9.00;;;5.32;;
37221;SDS011;23119;51.842;-2.230;2023-09-07T02:18:44;9.18;;;5.78;;
37221;SDS011;23119;51.842;-2.230;2023-09-07T02:21:12;8.57;;;4.90;;
37221;SDS011;23119;51.842;-2.230;2023-09-07T02:23:38;11.18;;;6.32;;
37221;SDS011;23119;51.842;-2.230;2023-09-07T02:26:13;11.60;;;6.50;;
37221;SDS011;23119;51.842;-2.230;2023-09-07T02:28:43;8.20;;;4.25;;
37221;SDS011;23119;51.842;-2.230;2023-09-07T02:31:12;8.00;;;6.20;;
37221;SDS011;23119;51.842;-2.230;2023-09-07T02:33:40;10.65;;;6.25;;
37221;SDS011;23119;51.842;-2.230;2023-09-07T02:36:05;7.53;;;5.47;;
37221;SDS011;23119;51.842;-2.230;2023-09-07T02:38:31;11.15;;;5.60;;
37221;SDS011;23119;51.842;-2.230;2023-09-07T02:40:57;7.95;;;5.60;;
37221;SDS011;23119;51.842;-2.230;2023-09-07T02:43:27;9.35;;;5.82;;
37221;SDS011;23119;51.842;-2.230;2023-09-07T02:45:53;10.77;;;6.25;;
37221;SDS011;23119;51.842;-2.230;2023-09-07T02:48:21;9.23;;;5.32;;
37221;SDS011;23119;51.842;-2.230;2023-09-07T02:50:48;6.95;;;5.15;;
37221;SDS011;23119;51.842;-2.230;2023-09-07T02:53:19;6.93;;;4.90;;
37221;SDS011;23119;51.842;-2.230;2023-09-07T02:55:47;10.90;;;5.70;;
37221;SDS011;23119;51.842;-2.230;2023-09-07T02:58:13;10.15;;;6.32;;
37221;SDS011;23119;51.842;-2.230;2023-09-07T03:00:44;10.82;;;6.50;;
37221;SDS011;23119;51.842;-2.230;2023-09-07T03:03:12;8.18;;;5.13;;
37221;SDS011;23119;51.842;-2.230;2023-09-07T03:05:41;8.57;;;5.82;;
37221;SDS011;23119;51.842;-2.230;2023-09-07T03:08:10;9.45;;;5.57;;
37221;SDS011;23119;51.842;-2.230;2023-09-07T03:10:39;10.75;;;4.90;;
37221;SDS011;23119;51.842;-2.230;2023-09-07T03:13:08;7.80;;;5.88;;
37221;SDS011;23119;51.842;-2.230;2023-09-07T03:15:36;11.95;;;6.20;;
37221;SDS011;23119;51.842;-2.230;2023-09-07T03:18:03;13.07;;;7.72;;
37221;SDS011;23119;51.842;-2.230;2023-09-07T03:20:52;9.23;;;6.10;;
37221;SDS011;23119;51.842;-2.230;2023-09-07T03:23:21;10.90;;;6.75;;
37221;SDS011;23119;51.842;-2.230;2023-09-07T03:25:47;9.27;;;7.00;;
37221;SDS011;23119;51.842;-2.230;2023-09-07T03:28:15;8.27;;;5.88;;
37221;SDS011;23119;51.842;-2.230;2023-09-07T03:30:41;10.07;;;6.68;;
37221;SDS011;23119;51.842;-2.230;2023-09-07T03:33:07;11.63;;;6.80;;
37221;SDS011;23119;51.842;-2.230;2023-09-07T03:35:33;8.82;;;6.90;;
37221;SDS011;23119;51.842;-2.230;2023-09-07T03:38:01;10.07;;;6.97;;
37221;SDS011;23119;51.842;-2.230;2023-09-07T03:40:29;12.90;;;7.78;;
37221;SDS011;23119;51.842;-2.230;2023-09-07T03:42:54;9.85;;;6.75;;
37221;SDS011;23119;51.842;-2.230;2023-09-07T03:45:22;10.05;;;6.72;;
37221;SDS011;23119;51.842;-2.230;2023-09-07T03:47:48;8.82;;;7.55;;
37221;SDS011;23119;51.842;-2.230;2023-09-07T03:50:14;11.68;;;7.43;;
37221;SDS011;23119;51.842;-2.230;2023-09-07T03:52:45;9.63;;;6.53;;
37221;SDS011;23119;51.842;-2.230;2023-09-07T03:55:15;10.00;;;6.15;;
37221;SDS011;23119;51.842;-2.230;2023-09-07T03:57:58;7.57;;;5.13;;
37221;SDS011;23119;51.842;-2.230;2023-09-07T04:00:24;11.43;;;6.07;;
37221;SDS011;23119;51.842;-2.230;2023-09-07T04:02:52;8.30;;;5.93;;
37221;SDS011;23119;51.842;-2.230;2023-09-07T04:05:18;6.47;;;5.82;;
37221;SDS011;23119;51.842;-2.230;2023-09-07T04:07:49;10.98;;;5.85;;
37221;SDS011;23119;51.842;-2.230;2023-09-07T04:10:16;8.27;;;6.32;;
37221;SDS011;23119;51.842;-2.230;2023-09-07T04:12:41;10.75;;;7.38;;
37221;SDS011;23119;51.842;-2.230;2023-09-07T04:15:09;9.30;;;7.53;;
37221;SDS011;23119;51.842;-2.230;2023-09-07T04:17:35;11.75;;;6.90;;
37221;SDS011;23119;51.842;-2.230;2023-09-07T04:20:05;9.85;;;6.20;;
37221;SDS011;23119;51.842;-2.230;2023-09-07T04:25:03;11.02;;;7.70;;
37221;SDS011;23119;51.842;-2.230;2023-09-07T04:27:30;11.43;;;7.70;;
37221;SDS011;23119;51.842;-2.230;2023-09-07T04:29:56;10.45;;;6.88;;
37221;SDS011;23119;51.842;-2.230;2023-09-07T04:32:22;8.88;;;6.28;;
37221;SDS011;23119;51.842;-2.230;2023-09-07T04:34:47;9.55;;;6.95;;
37221;SDS011;23119;51.842;-2.230;2023-09-07T04:37:22;12.40;;;7.30;;
37221;SDS011;23119;51.842;-2.230;2023-09-07T04:39:50;10.32;;;7.78;;
37221;SDS011;23119;51.842;-2.230;2023-09-07T04:42:22;11.57;;;7.35;;
37221;SDS011;23119;51.842;-2.230;2023-09-07T04:44:50;7.90;;;6.40;;
37221;SDS011;23119;51.842;-2.230;2023-09-07T04:47:18;13.95;;;7.43;;
37221;SDS011;23119;51.842;-2.230;2023-09-07T04:49:48;9.98;;;7.45;;
37221;SDS011;23119;51.842;-2.230;2023-09-07T04:52:23;11.32;;;5.95;;
37221;SDS011;23119;51.842;-2.230;2023-09-07T04:54:51;10.38;;;7.40;;
37221;SDS011;23119;51.842;-2.230;2023-09-07T04:57:17;12.40;;;7.72;;
37221;SDS011;23119;51.842;-2.230;2023-09-07T04:59:45;11.13;;;7.80;;
37221;SDS011;23119;51.842;-2.230;2023-09-07T05:02:11;11.00;;;7.75;;
37221;SDS011;23119;51.842;-2.230;2023-09-07T05:04:39;10.05;;;7.50;;
37221;SDS011;23119;51.842;-2.230;2023-09-07T05:07:05;11.05;;;6.72;;
37221;SDS011;23119;51.842;-2.230;2023-09-07T05:09:31;14.68;;;7.55;;
37221;SDS011;23119;51.842;-2.230;2023-09-07T05:11:58;10.68;;;7.68;;
37221;SDS011;23119;51.842;-2.230;2023-09-07T05:14:26;13.32;;;8.95;;
37221;SDS011;23119;51.842;-2.230;2023-09-07T05:17:01;12.10;;;8.68;;
37221;SDS011;23119;51.842;-2.230;2023-09-07T05:19:30;10.25;;;7.93;;
37221;SDS011;23119;51.842;-2.230;2023-09-07T05:21:55;10.20;;;8.02;;
37221;SDS011;23119;51.842;-2.230;2023-09-07T05:24:21;13.05;;;7.60;;
37221;SDS011;23119;51.842;-2.230;2023-09-07T05:26:47;11.60;;;7.82;;
37221;SDS011;23119;51.842;-2.230;2023-09-07T05:29:15;11.00;;;8.50;;
37221;SDS011;23119;51.842;-2.230;2023-09-07T05:31:41;13.90;;;9.07;;
37221;SDS011;23119;51.842;-2.230;2023-09-07T05:34:09;12.90;;;9.38;;
37221;SDS011;23119;51.842;-2.230;2023-09-07T05:36:40;13.60;;;9.25;;
37221;SDS011;23119;51.842;-2.230;2023-09-07T05:39:05;9.68;;;8.35;;
37221;SDS011;23119;51.842;-2.230;2023-09-07T05:41:31;12.88;;;8.20;;
37221;SDS011;23119;51.842;-2.230;2023-09-07T05:43:57;9.00;;;7.28;;
37221;SDS011;23119;51.842;-2.230;2023-09-07T05:46:22;13.43;;;7.75;;
37221;SDS011;23119;51.842;-2.230;2023-09-07T05:48:50;10.25;;;7.90;;
37221;SDS011;23119;51.842;-2.230;2023-09-07T05:51:16;10.30;;;7.85;;
37221;SDS011;23119;51.842;-2.230;2023-09-07T05:53:42;12.27;;;7.38;;
37221;SDS011;23119;51.842;-2.230;2023-09-07T05:56:10;13.57;;;8.35;;
37221;SDS011;23119;51.842;-2.230;2023-09-07T05:58:35;12.93;;;7.40;;
37221;SDS011;23119;51.842;-2.230;2023-09-07T06:01:03;7.97;;;6.82;;
37221;SDS011;23119;51.842;-2.230;2023-09-07T06:03:31;12.32;;;7.05;;
37221;SDS011;23119;51.842;-2.230;2023-09-07T06:06:04;13.48;;;7.95;;
37221;SDS011;23119;51.842;-2.230;2023-09-07T06:08:30;10.77;;;7.10;;
37221;SDS011;23119;51.842;-2.230;2023-09-07T06:10:55;10.38;;;7.20;;
37221;SDS011;23119;51.842;-2.230;2023-09-07T06:13:21;9.85;;;6.28;;
37221;SDS011;23119;51.842;-2.230;2023-09-07T06:15:47;10.98;;;8.00;;
37221;SDS011;23119;51.842;-2.230;2023-09-07T06:18:15;12.45;;;7.63;;
37221;SDS011;23119;51.842;-2.230;2023-09-07T06:20:41;9.32;;;7.60;;
37221;SDS011;23119;51.842;-2.230;2023-09-07T06:23:06;6.97;;;5.53;;
37221;SDS011;23119;51.842;-2.230;2023-09-07T06:25:37;7.63;;;5.88;;
37221;SDS011;23119;51.842;-2.230;2023-09-07T06:28:08;9.65;;;6.25;;
37221;SDS011;23119;51.842;-2.230;2023-09-07T06:30:33;7.70;;;6.07;;
37221;SDS011;23119;51.842;-2.230;2023-09-07T06:33:01;10.93;;;7.22;;
37221;SDS011;23119;51.842;-2.230;2023-09-07T06:35:27;11.10;;;7.10;;
37221;SDS011;23119;51.842;-2.230;2023-09-07T06:37:53;8.85;;;6.70;;
37221;SDS011;23119;51.842;-2.230;2023-09-07T06:40:21;7.55;;;5.45;;
37221;SDS011;23119;51.842;-2.230;2023-09-07T06:42:51;12.25;;;6.38;;
37221;SDS011;23119;51.842;-2.230;2023-09-07T06:45:18;9.65;;;6.20;;
37221;SDS011;23119;51.842;-2.230;2023-09-07T06:47:43;9.80;;;7.68;;
37221;SDS011;23119;51.842;-2.230;2023-09-07T06:50:11;11.10;;;8.70;;
37221;SDS011;23119;51.842;-2.230;2023-09-07T06:52:39;9.15;;;7.00;;
37221;SDS011;23119;51.842;-2.230;2023-09-07T06:55:05;14.38;;;8.93;;
37221;SDS011;23119;51.842;-2.230;2023-09-07T06:57:34;13.45;;;8.00;;
37221;SDS011;23119;51.842;-2.230;2023-09-07T07:00:00;11.10;;;8.50;;
37221;SDS011;23119;51.842;-2.230;2023-09-07T07:02:26;10.70;;;8.93;;
37221;SDS011;23119;51.842;-2.230;2023-09-07T07:04:52;14.90;;;8.52;;
37221;SDS011;23119;51.842;-2.230;2023-09-07T07:07:18;12.55;;;8.75;;
37221;SDS011;23119;51.842;-2.230;2023-09-07T07:09:43;11.68;;;8.18;;
37221;SDS011;23119;51.842;-2.230;2023-09-07T07:12:11;10.57;;;8.85;;
37221;SDS011;23119;51.842;-2.230;2023-09-07T07:14:40;12.73;;;9.65;;
37221;SDS011;23119;51.842;-2.230;2023-09-07T07:17:05;10.02;;;8.30;;
37221;SDS011;23119;51.842;-2.230;2023-09-07T07:19:31;13.68;;;8.68;;
37221;SDS011;23119;51.842;-2.230;2023-09-07T07:21:57;12.00;;;7.80;;
37221;SDS011;23119;51.842;-2.230;2023-09-07T07:24:25;11.90;;;7.47;;
37221;SDS011;23119;51.842;-2.230;2023-09-07T07:26:53;10.50;;;7.35;;
37221;SDS011;23119;51.842;-2.230;2023-09-07T07:29:19;11.82;;;7.60;;
37221;SDS011;23119;51.842;-2.230;2023-09-07T07:31:45;9.43;;;7.40;;
37221;SDS011;23119;51.842;-2.230;2023-09-07T07:34:12;12.02;;;8.07;;
37221;SDS011;23119;51.842;-2.230;2023-09-07T07:36:44;12.07;;;8.43;;
37221;SDS011;23119;51.842;-2.230;2023-09-07T07:39:10;11.65;;;7.88;;
37221;SDS011;23119;51.842;-2.230;2023-09-07T07:41:38;12.23;;;7.93;;
37221;SDS011;23119;51.842;-2.230;2023-09-07T07:44:06;15.93;;;8.60;;
37221;SDS011;23119;51.842;-2.230;2023-09-07T07:46:35;13.52;;;8.35;;
37221;SDS011;23119;51.842;-2.230;2023-09-07T07:49:01;11.07;;;8.13;;
37221;SDS011;23119;51.842;-2.230;2023-09-07T07:51:27;8.90;;;8.00;;
37221;SDS011;23119;51.842;-2.230;2023-09-07T07:53:59;9.00;;;8.10;;
37221;SDS011;23119;51.842;-2.230;2023-09-07T07:56:25;13.65;;;9.02;;
37221;SDS011;23119;51.842;-2.230;2023-09-07T07:58:51;9.95;;;7.63;;
37221;SDS011;23119;51.842;-2.230;2023-09-07T08:01:17;9.77;;;7.28;;
37221;SDS011;23119;51.842;-2.230;2023-09-07T08:03:47;11.43;;;7.65;;
37221;SDS011;23119;51.842;-2.230;2023-09-07T08:06:20;9.00;;;6.90;;
37221;SDS011;23119;51.842;-2.230;2023-09-07T08:08:53;9.35;;;6.97;;
37221;SDS011;23119;51.842;-2.230;2023-09-07T08:11:21;8.30;;;6.28;;
37221;SDS011;23119;51.842;-2.230;2023-09-07T08:13:47;7.35;;;6.28;;
37221;SDS011;23119;51.842;-2.230;2023-09-07T08:16:20;9.48;;;6.90;;
37221;SDS011;23119;51.842;-2.230;2023-09-07T08:18:49;9.32;;;6.32;;
37221;SDS011;23119;51.842;-2.230;2023-09-07T08:21:15;7.85;;;5.43;;
37221;SDS011;23119;51.842;-2.230;2023-09-07T08:23:41;7.60;;;5.97;;
37221;SDS011;23119;51.842;-2.230;2023-09-07T08:26:07;8.93;;;5.90;;
37221;SDS011;23119;51.842;-2.230;2023-09-07T08:28:34;8.70;;;6.85;;
37221;SDS011;23119;51.842;-2.230;2023-09-07T08:31:00;9.02;;;6.95;;
37221;SDS011;23119;51.842;-2.230;2023-09-07T08:33:26;10.27;;;6.10;;
37221;SDS011;23119;51.842;-2.230;2023-09-07T08:35:55;8.70;;;6.07;;
37221;SDS011;23119;51.842;-2.230;2023-09-07T08:38:30;7.82;;;5.45;;
37221;SDS011;23119;51.842;-2.230;2023-09-07T08:40:56;8.50;;;6.18;;
37221;SDS011;23119;51.842;-2.230;2023-09-07T08:43:30;12.40;;;6.38;;
37221;SDS011;23119;51.842;-2.230;2023-09-07T08:46:05;6.50;;;5.70;;
37221;SDS011;23119;51.842;-2.230;2023-09-07T08:48:43;7.82;;;5.55;;
37221;SDS011;23119;51.842;-2.230;2023-09-07T08:51:09;9.90;;;5.75;;
37221;SDS011;23119;51.842;-2.230;2023-09-07T08:53:44;7.28;;;4.80;;
37221;SDS011;23119;51.842;-2.230;2023-09-07T08:56:14;9.00;;;5.63;;
37221;SDS011;23119;51.842;-2.230;2023-09-07T08:58:48;6.60;;;5.68;;
37221;SDS011;23119;51.842;-2.230;2023-09-07T09:01:17;6.43;;;5.00;;
37221;SDS011;23119;51.842;-2.230;2023-09-07T09:03:48;7.07;;;5.65;;
37221;SDS011;23119;51.842;-2.230;2023-09-07T09:06:18;6.47;;;4.60;;
37221;SDS011;23119;51.842;-2.230;2023-09-07T09:08:46;6.45;;;4.78;;
37221;SDS011;23119;51.842;-2.230;2023-09-07T09:11:17;6.60;;;4.78;;
37221;SDS011;23119;51.842;-2.230;2023-09-07T09:13:43;5.95;;;5.18;;
37221;SDS011;23119;51.842;-2.230;2023-09-07T09:16:10;9.30;;;4.35;;
37221;SDS011;23119;51.842;-2.230;2023-09-07T09:19:00;10.80;;;5.20;;
37221;SDS011;23119;51.842;-2.230;2023-09-07T09:21:34;9.80;;;5.75;;
37221;SDS011;23119;51.842;-2.230;2023-09-07T09:24:02;6.78;;;5.20;;
37221;SDS011;23119;51.842;-2.230;2023-09-07T09:26:36;5.85;;;4.90;;
37221;SDS011;23119;51.842;-2.230;2023-09-07T09:29:08;6.32;;;4.57;;
37221;SDS011;23119;51.842;-2.230;2023-09-07T09:31:37;6.07;;;4.55;;
37221;SDS011;23119;51.842;-2.230;2023-09-07T09:34:02;6.20;;;3.47;;
37221;SDS011;23119;51.842;-2.230;2023-09-07T09:39:23;8.10;;;4.88;;
37221;SDS011;23119;51.842;-2.230;2023-09-07T09:41:49;6.35;;;5.10;;
37221;SDS011;23119;51.842;-2.230;2023-09-07T09:44:16;5.35;;;4.80;;
37221;SDS011;23119;51.842;-2.230;2023-09-07T09:46:42;7.82;;;4.85;;
37221;SDS011;23119;51.842;-2.230;2023-09-07T09:49:11;9.52;;;5.07;;
37221;SDS011;23119;51.842;-2.230;2023-09-07T09:51:38;9.60;;;5.53;;
37221;SDS011;23119;51.842;-2.230;2023-09-07T09:54:04;5.00;;;4.50;;
37221;SDS011;23119;51.842;-2.230;2023-09-07T09:56:31;6.25;;;5.40;;
37221;SDS011;23119;51.842;-2.230;2023-09-07T09:58:57;10.52;;;5.78;;
37221;SDS011;23119;51.842;-2.230;2023-09-07T10:01:25;6.40;;;5.15;;
37221;SDS011;23119;51.842;-2.230;2023-09-07T10:03:51;6.03;;;5.03;;
37221;SDS011;23119;51.842;-2.230;2023-09-07T10:06:19;6.05;;;4.47;;
37221;SDS011;23119;51.842;-2.230;2023-09-07T10:08:54;7.88;;;4.97;;
37221;SDS011;23119;51.842;-2.230;2023-09-07T10:11:30;8.25;;;4.60;;
37221;SDS011;23119;51.842;-2.230;2023-09-07T10:14:07;8.88;;;5.68;;
37221;SDS011;23119;51.842;-2.230;2023-09-07T10:16:43;5.55;;;4.88;;
37221;SDS011;23119;51.842;-2.230;2023-09-07T10:19:29;6.75;;;4.55;;
37221;SDS011;23119;51.842;-2.230;2023-09-07T10:21:55;7.60;;;5.63;;
37221;SDS011;23119;51.842;-2.230;2023-09-07T10:26:55;9.95;;;5.10;;
37221;SDS011;23119;51.842;-2.230;2023-09-07T10:29:44;8.07;;;5.32;;
37221;SDS011;23119;51.842;-2.230;2023-09-07T10:32:11;7.50;;;5.55;;
37221;SDS011;23119;51.842;-2.230;2023-09-07T10:34:59;7.43;;;5.18;;
37221;SDS011;23119;51.842;-2.230;2023-09-07T10:37:28;7.13;;;4.32;;
37221;SDS011;23119;51.842;-2.230;2023-09-07T10:39:54;7.30;;;5.43;;
37221;SDS011;23119;51.842;-2.230;2023-09-07T10:42:22;9.25;;;4.25;;
37221;SDS011;23119;51.842;-2.230;2023-09-07T10:44:51;6.72;;;4.75;;
37221;SDS011;23119;51.842;-2.230;2023-09-07T10:47:19;8.50;;;4.63;;
37221;SDS011;23119;51.842;-2.230;2023-09-07T10:49:52;9.70;;;4.90;;
37221;SDS011;23119;51.842;-2.230;2023-09-07T10:52:38;5.72;;;4.13;;
37221;SDS011;23119;51.842;-2.230;2023-09-07T10:55:12;7.60;;;3.80;;
37221;SDS011;23119;51.842;-2.230;2023-09-07T10:57:53;8.20;;;4.45;;
37221;SDS011;23119;51.842;-2.230;2023-09-07T11:00:18;5.20;;;4.20;;
37221;SDS011;23119;51.842;-2.230;2023-09-07T11:02:44;7.22;;;4.03;;
37221;SDS011;23119;51.842;-2.230;2023-09-07T11:05:12;8.05;;;4.75;;
37221;SDS011;23119;51.842;-2.230;2023-09-07T11:07:45;4.90;;;3.60;;
37221;SDS011;23119;51.842;-2.230;2023-09-07T11:10:11;6.07;;;3.92;;
37221;SDS011;23119;51.842;-2.230;2023-09-07T11:12:39;7.25;;;3.95;;
37221;SDS011;23119;51.842;-2.230;2023-09-07T11:15:14;6.07;;;3.05;;
37221;SDS011;23119;51.842;-2.230;2023-09-07T11:17:44;5.93;;;4.00;;
37221;SDS011;23119;51.842;-2.230;2023-09-07T11:20:11;6.65;;;3.08;;
37221;SDS011;23119;51.842;-2.230;2023-09-07T11:22:37;5.03;;;3.17;;
37221;SDS011;23119;51.842;-2.230;2023-09-07T11:25:05;6.80;;;3.80;;
37221;SDS011;23119;51.842;-2.230;2023-09-07T11:27:33;5.78;;;4.35;;
37221;SDS011;23119;51.842;-2.230;2023-09-07T11:30:04;6.75;;;3.88;;
37221;SDS011;23119;51.842;-2.230;2023-09-07T11:32:35;6.55;;;2.88;;
37221;SDS011;23119;51.842;-2.230;2023-09-07T11:35:05;7.32;;;3.28;;
37221;SDS011;23119;51.842;-2.230;2023-09-07T11:37:40;8.63;;;3.70;;
37221;SDS011;23119;51.842;-2.230;2023-09-07T11:40:05;4.40;;;2.58;;
37221;SDS011;23119;51.842;-2.230;2023-09-07T11:42:40;6.60;;;2.92;;
37221;SDS011;23119;51.842;-2.230;2023-09-07T11:45:06;7.32;;;3.20;;
37221;SDS011;23119;51.842;-2.230;2023-09-07T11:47:34;3.97;;;2.67;;
37221;SDS011;23119;51.842;-2.230;2023-09-07T11:50:00;6.32;;;2.33;;
37221;SDS011;23119;51.842;-2.230;2023-09-07T11:52:26;2.30;;;1.98;;
37221;SDS011;23119;51.842;-2.230;2023-09-07T11:54:55;2.10;;;1.60;;
37221;SDS011;23119;51.842;-2.230;2023-09-07T11:57:20;3.13;;;1.67;;
37221;SDS011;23119;51.842;-2.230;2023-09-07T11:59:46;4.05;;;1.10;;
37221;SDS011;23119;51.842;-2.230;2023-09-07T12:02:12;2.75;;;1.20;;
37221;SDS011;23119;51.842;-2.230;2023-09-07T12:04:43;4.05;;;1.20;;
37221;SDS011;23119;51.842;-2.230;2023-09-07T12:07:09;4.72;;;1.73;;
37221;SDS011;23119;51.842;-2.230;2023-09-07T12:09:35;4.68;;;1.30;;
37221;SDS011;23119;51.842;-2.230;2023-09-07T12:12:01;3.58;;;1.35;;
37221;SDS011;23119;51.842;-2.230;2023-09-07T12:14:30;2.22;;;1.38;;
37221;SDS011;23119;51.842;-2.230;2023-09-07T12:16:56;4.93;;;1.60;;
37221;SDS011;23119;51.842;-2.230;2023-09-07T12:19:22;3.88;;;1.42;;
37221;SDS011;23119;51.842;-2.230;2023-09-07T12:21:48;4.72;;;1.67;;
37221;SDS011;23119;51.842;-2.230;2023-09-07T12:24:15;3.25;;;1.45;;
37221;SDS011;23119;51.842;-2.230;2023-09-07T12:26:41;2.08;;;1.00;;
37221;SDS011;23119;51.842;-2.230;2023-09-07T12:29:09;3.85;;;1.02;;
37221;SDS011;23119;51.842;-2.230;2023-09-07T12:31:35;6.10;;;1.10;;
37221;SDS011;23119;51.842;-2.230;2023-09-07T12:34:00;4.75;;;1.38;;
37221;SDS011;23119;51.842;-2.230;2023-09-07T12:36:26;3.85;;;1.30;;
37221;SDS011;23119;51.842;-2.230;2023-09-07T12:38:55;2.03;;;1.13;;
37221;SDS011;23119;51.842;-2.230;2023-09-07T12:41:29;4.07;;;1.70;;
37221;SDS011;23119;51.842;-2.230;2023-09-07T12:43:57;4.55;;;1.10;;
37221;SDS011;23119;51.842;-2.230;2023-09-07T12:46:23;5.32;;;1.20;;
37221;SDS011;23119;51.842;-2.230;2023-09-07T12:48:51;1.52;;;0.98;;
37221;SDS011;23119;51.842;-2.230;2023-09-07T12:51:22;4.63;;;1.10;;
37221;SDS011;23119;51.842;-2.230;2023-09-07T12:53:48;2.85;;;1.00;;
37221;SDS011;23119;51.842;-2.230;2023-09-07T12:56:16;2.72;;;0.90;;
37221;SDS011;23119;51.842;-2.230;2023-09-07T12:58:43;2.40;;;0.98;;
37221;SDS011;23119;51.842;-2.230;2023-09-07T13:01:09;2.97;;;0.90;;
37221;SDS011;23119;51.842;-2.230;2023-09-07T13:03:41;3.58;;;1.35;;
37221;SDS011;23119;51.842;-2.230;2023-09-07T13:06:07;3.92;;;1.00;;
37221;SDS011;23119;51.842;-2.230;2023-09-07T13:08:36;2.67;;;1.25;;
37221;SDS011;23119;51.842;-2.230;2023-09-07T13:11:04;2.00;;;0.90;;
37221;SDS011;23119;51.842;-2.230;2023-09-07T13:13:30;2.53;;;0.90;;
37221;SDS011;23119;51.842;-2.230;2023-09-07T13:15:56;4.03;;;0.93;;
37221;SDS011;23119;51.842;-2.230;2023-09-07T13:18:24;2.65;;;1.05;;
37221;SDS011;23119;51.842;-2.230;2023-09-07T13:20:50;1.70;;;1.00;;
37221;SDS011;23119;51.842;-2.230;2023-09-07T13:23:28;4.32;;;0.80;;
37221;SDS011;23119;51.842;-2.230;2023-09-07T13:25:56;2.00;;;0.88;;
37221;SDS011;23119;51.842;-2.230;2023-09-07T13:28:23;2.88;;;0.80;;
37221;SDS011;23119;51.842;-2.230;2023-09-07T13:30:50;1.70;;;0.80;;
37221;SDS011;23119;51.842;-2.230;2023-09-07T13:33:16;2.58;;;0.95;;
37221;SDS011;23119;51.842;-2.230;2023-09-07T13:35:41;4.63;;;0.77;;
37221;SDS011;23119;51.842;-2.230;2023-09-07T13:38:08;4.40;;;1.00;;
37221;SDS011;23119;51.842;-2.230;2023-09-07T13:40:37;2.85;;;0.90;;
37221;SDS011;23119;51.842;-2.230;2023-09-07T13:43:08;2.67;;;0.82;;
37221;SDS011;23119;51.842;-2.230;2023-09-07T13:45:36;4.45;;;1.10;;
37221;SDS011;23119;51.842;-2.230;2023-09-07T13:48:02;2.90;;;0.65;;
37221;SDS011;23119;51.842;-2.230;2023-09-07T13:50:35;2.65;;;0.90;;
37221;SDS011;23119;51.842;-2.230;2023-09-07T13:53:01;2.38;;;0.95;;
37221;SDS011;23119;51.842;-2.230;2023-09-07T13:55:27;2.83;;;0.88;;
37221;SDS011;23119;51.842;-2.230;2023-09-07T13:57:55;1.65;;;0.70;;
37221;SDS011;23119;51.842;-2.230;2023-09-07T14:00:21;4.53;;;0.70;;
37221;SDS011;23119;51.842;-2.230;2023-09-07T14:02:49;2.33;;;0.80;;
37221;SDS011;23119;51.842;-2.230;2023-09-07T14:05:16;1.40;;;0.70;;
37221;SDS011;23119;51.842;-2.230;2023-09-07T14:07:42;1.88;;;0.70;;
37221;SDS011;23119;51.842;-2.230;2023-09-07T14:10:09;1.60;;;0.80;;
37221;SDS011;23119;51.842;-2.230;2023-09-07T14:12:35;3.17;;;0.85;;
37221;SDS011;23119;51.842;-2.230;2023-09-07T14:15:01;2.17;;;0.93;;
37221;SDS011;23119;51.842;-2.230;2023-09-07T14:17:26;2.83;;;0.75;;
37221;SDS011;23119;51.842;-2.230;2023-09-07T14:19:52;2.55;;;0.70;;
37221;SDS011;23119;51.842;-2.230;2023-09-07T14:22:20;2.92;;;0.80;;
37221;SDS011;23119;51.842;-2.230;2023-09-07T14:24:47;1.77;;;0.90;;
37221;SDS011;23119;51.842;-2.230;2023-09-07T14:27:13;3.40;;;0.77;;
37221;SDS011;23119;51.842;-2.230;2023-09-07T14:29:38;2.08;;;0.88;;
37221;SDS011;23119;51.842;-2.230;2023-09-07T14:32:04;5.38;;;0.80;;
37221;SDS011;23119;51.842;-2.230;2023-09-07T14:34:30;1.95;;;1.00;;
37221;SDS011;23119;51.842;-2.230;2023-09-07T14:36:56;4.20;;;0.90;;
37221;SDS011;23119;51.842;-2.230;2023-09-07T14:39:24;4.38;;;0.75;;
37221;SDS011;23119;51.842;-2.230;2023-09-07T14:41:50;2.55;;;0.93;;
37221;SDS011;23119;51.842;-2.230;2023-09-07T14:44:21;2.50;;;0.70;;
37221;SDS011;23119;51.842;-2.230;2023-09-07T14:46:47;3.72;;;1.20;;
37221;SDS011;23119;51.842;-2.230;2023-09-07T14:49:15;3.78;;;0.93;;